Time;durP1;ratioP1;P1;durP2;ratioP2;P2;SDS_P1;SDS_P2;PMS_P1;PMS_P2;Temp;Humidity;BMP_temperature;BMP_pressure;BME280_temperature;BME280_humidity;BME280_pressure;Samples;Min_cycle;Max_cycle;Signal;HPM_P1;HPM_P2
2022/09/25 00:01:01;;;;;;;8.60;6.40;;;;;;;7.50;85.15;95767.05;1829718;78;21509;-69
2022/09/25 00:03:30;;;;;;;9.07;6.97;;;;;;;7.52;84.97;95760.05;1820996;79;21062;-69
2022/09/25 00:06:05;;;;;;;8.77;6.30;;;;;;;7.55;84.67;95763.97;1820816;79;20982;-70
2022/09/25 00:08:33;;;;;;;9.53;6.30;;;;;;;7.62;85.03;95764.83;1821169;79;21006;-69
2022/09/25 00:11:05;;;;;;;8.47;6.17;;;;;;;7.70;85.31;95763.03;1821172;79;21557;-69
2022/09/25 00:13:32;;;;;;;8.95;6.33;;;;;;;7.74;85.18;95762.59;1821446;79;21014;-69
2022/09/25 00:16:00;;;;;;;12.70;7.13;;;;;;;7.81;85.13;95757.72;1821174;79;21457;-69
2022/09/25 00:21:14;;;;;;;7.80;5.67;;;;;;;8.02;84.89;95755.43;1821032;79;20982;-69
2022/09/25 00:23:43;;;;;;;8.67;6.43;;;;;;;7.97;84.40;95761.16;1821142;79;20959;-69
2022/09/25 00:26:12;;;;;;;8.53;6.50;;;;;;;7.99;84.51;95752.83;1821266;79;21010;-69
2022/09/25 00:28:40;;;;;;;10.73;6.30;;;;;;;8.05;84.75;95755.40;1821216;79;20986;-69
2022/09/25 00:31:09;;;;;;;9.10;6.70;;;;;;;8.11;84.31;95754.48;1821262;79;20967;-69
2022/09/25 00:33:36;;;;;;;10.70;6.73;;;;;;;8.19;84.42;95750.08;1820832;79;21045;-69
2022/09/25 00:36:07;;;;;;;9.63;6.20;;;;;;;8.25;83.80;95755.27;1820661;79;21049;-69
2022/09/25 00:38:36;;;;;;;9.13;6.30;;;;;;;8.21;83.13;95746.97;1821410;79;20998;-69
2022/09/25 00:41:05;;;;;;;6.43;4.57;;;;;;;8.17;83.57;95747.89;1821174;79;21041;-69
2022/09/25 00:43:43;;;;;;;9.57;5.33;;;;;;;8.16;83.41;95748.75;1821052;79;21021;-69
2022/09/25 00:46:24;;;;;;;6.27;4.70;;;;;;;8.11;83.42;95744.84;1821228;79;21021;-69
2022/09/25 00:49:07;;;;;;;7.83;4.77;;;;;;;8.12;84.19;95746.60;1821231;79;21043;-69
2022/09/25 00:51:45;;;;;;;8.57;5.30;;;;;;;8.16;84.30;95748.75;1798813;79;20991;-69
2022/09/25 00:54:26;;;;;;;8.60;5.87;;;;;;;8.26;84.53;95742.55;1821104;79;21113;-69
2022/09/25 00:56:55;;;;;;;8.27;5.70;;;;;;;8.38;84.24;95748.17;1805539;79;21026;-69
2022/09/25 00:59:27;;;;;;;9.40;6.33;;;;;;;8.43;83.65;95743.78;1821209;79;20981;-69
2022/09/25 01:01:55;;;;;;;6.60;5.30;;;;;;;8.38;83.70;95742.45;1822838;78;21082;-69
2022/09/25 01:04:22;;;;;;;9.63;5.90;;;;;;;8.48;84.14;95735.86;1825668;78;21044;-68
2022/09/25 01:06:50;;;;;;;7.37;6.10;;;;;;;8.54;83.91;95733.16;1825974;78;21065;-69
2022/09/25 01:09:17;;;;;;;8.97;6.20;;;;;;;8.59;83.22;95728.73;1825851;78;20998;-69
2022/09/25 01:11:44;;;;;;;10.13;5.80;;;;;;;8.55;82.85;95731.84;1793978;78;21148;-69
2022/09/25 01:14:16;;;;;;;6.03;4.97;;;;;;;8.52;82.63;95729.25;1825726;78;21038;-69
2022/09/25 01:16:51;;;;;;;6.63;4.43;;;;;;;8.46;82.62;95729.28;1786924;78;21042;-69
2022/09/25 01:19:32;;;;;;;7.63;4.77;;;;;;;8.41;82.45;95732.39;1826060;78;21029;-69
2022/09/25 01:22:13;;;;;;;5.90;5.07;;;;;;;8.30;83.26;95728.51;1825897;78;21045;-70
2022/09/25 01:25:06;;;;;;;5.47;4.10;;;;;;;8.20;83.76;95728.15;1825769;78;21002;-69
2022/09/25 01:28:05;;;;;;;7.80;5.17;;;;;;;8.16;83.65;95735.61;1826186;78;21041;-69
2022/09/25 01:30:37;;;;;;;7.23;4.87;;;;;;;8.11;83.57;95727.75;1825812;79;21125;-69
2022/09/25 01:33:22;;;;;;;8.03;5.17;;;;;;;8.05;84.87;95724.31;1826072;78;21137;-69
2022/09/25 01:36:02;;;;;;;6.40;5.10;;;;;;;8.08;84.58;95726.47;1826298;78;20956;-69
2022/09/25 01:38:48;;;;;;;6.53;5.23;;;;;;;8.12;84.37;95729.52;1826013;78;21543;-69
2022/09/25 01:41:26;;;;;;;6.90;5.27;;;;;;;8.15;84.27;95727.31;1825606;79;21543;-69
2022/09/25 01:43:58;;;;;;;9.13;6.37;;;;;;;8.12;84.11;95722.08;1826135;78;21093;-69
2022/09/25 01:46:33;;;;;;;7.67;6.03;;;;;;;8.06;84.40;95722.11;1824785;78;20979;-68
2022/09/25 01:49:08;;;;;;;6.83;4.83;;;;;;;8.05;84.51;95723.00;1826093;78;21465;-69
2022/09/25 01:51:43;;;;;;;7.57;4.90;;;;;;;8.03;84.40;95728.25;1825123;78;21046;-68
2022/09/25 01:54:27;;;;;;;8.07;4.20;;;;;;;8.02;84.55;95730.02;1826075;78;20993;-69
2022/09/25 01:57:28;;;;;;;7.90;5.30;;;;;;;8.00;84.68;95729.59;1814384;78;21041;-69
2022/09/25 02:00:07;;;;;;;7.20;5.33;;;;;;;7.98;84.91;95729.59;1825973;78;21536;-66
2022/09/25 02:02:45;;;;;;;8.03;5.73;;;;;;;8.00;84.86;95731.77;1825881;78;20978;-69
2022/09/25 02:05:26;;;;;;;9.37;5.57;;;;;;;8.01;84.76;95736.58;1824887;78;21551;-69
2022/09/25 02:07:59;;;;;;;7.33;5.23;;;;;;;8.02;84.98;95736.59;1824502;78;21141;-69
2022/09/25 02:10:46;;;;;;;6.30;5.10;;;;;;;8.03;85.25;95735.69;1826364;78;21421;-69
2022/09/25 02:13:19;;;;;;;5.97;4.77;;;;;;;8.04;85.16;95727.39;1825814;78;21061;-69
2022/09/25 02:15:56;;;;;;;5.53;4.13;;;;;;;8.06;84.85;95724.28;1826216;78;21006;-69
2022/09/25 02:21:22;;;;;;;4.43;3.80;;;;;;;8.14;85.15;95722.92;1826142;78;20955;-68
2022/09/25 02:24:06;;;;;;;4.90;3.73;;;;;;;8.15;84.80;95731.25;1825174;78;21006;-68
2022/09/25 02:26:34;;;;;;;9.07;4.50;;;;;;;8.16;85.06;95722.02;1826327;78;21001;-69
2022/09/25 02:29:04;;;;;;;6.37;3.83;;;;;;;8.21;85.79;95725.94;1825800;78;21054;-69
2022/09/25 02:31:37;;;;;;;7.13;3.40;;;;;;;8.22;85.12;95723.76;1826383;78;21449;-69
2022/09/25 02:34:04;;;;;;;6.58;4.45;;;;;;;8.22;85.04;95715.42;1826585;78;21070;-69
2022/09/25 02:36:32;;;;;;;7.93;4.10;;;;;;;8.32;85.38;95727.20;1826062;78;20968;-69
2022/09/25 02:39:02;;;;;;;5.90;4.70;;;;;;;8.42;85.55;95718.38;1825891;78;21494;-69
2022/09/25 02:41:52;;;;;;;5.70;5.00;;;;;;;8.52;85.53;95712.16;1826185;78;20990;-69
2022/09/25 02:44:42;;;;;;;5.40;4.47;;;;;;;8.60;84.89;95712.09;1825081;78;20995;-68
2022/09/25 02:47:14;;;;;;;6.10;4.20;;;;;;;8.68;84.69;95701.49;1826302;78;21012;-69
2022/09/25 02:49:50;;;;;;;4.03;3.63;;;;;;;8.67;83.90;95704.58;1826028;78;21499;-69
2022/09/25 02:52:29;;;;;;;5.50;3.77;;;;;;;8.68;83.89;95705.44;1778430;78;21416;-69
2022/09/25 02:55:18;;;;;;;5.87;3.77;;;;;;;8.76;83.83;95702.28;1825861;78;20990;-69
2022/09/25 02:58:00;;;;;;;5.20;3.30;;;;;;;8.69;83.32;95702.77;1826076;78;21452;-69
2022/09/25 03:00:27;;;;;;;5.33;3.80;;;;;;;8.63;83.32;95697.59;1826160;78;21001;-69
2022/09/25 03:03:02;;;;;;;3.50;3.20;;;;;;;8.55;83.49;95705.55;1823114;78;21090;-69
2022/09/25 03:05:30;;;;;;;7.20;4.30;;;;;;;8.46;83.03;95704.30;1821342;79;21410;-69
2022/09/25 03:10:45;;;;;;;9.20;4.50;;;;;;;8.43;84.31;95712.22;1820962;79;21077;-69
2022/09/25 03:13:22;;;;;;;6.27;4.40;;;;;;;8.41;83.67;95698.21;1821233;79;21469;-70
2022/09/25 03:15:57;;;;;;;4.57;3.90;;;;;;;8.33;83.75;95704.81;1820943;79;21070;-69
2022/09/25 03:18:25;;;;;;;4.70;3.67;;;;;;;8.28;84.47;95704.43;1820651;79;21002;-69
2022/09/25 03:20:52;;;;;;;5.30;4.10;;;;;;;8.22;84.45;95705.36;1821218;79;21049;-69
2022/09/25 03:23:18;;;;;;;4.40;3.90;;;;;;;8.20;84.31;95697.47;1821199;79;21006;-69
2022/09/25 03:25:46;;;;;;;6.23;3.67;;;;;;;8.21;84.68;95703.59;1821018;79;21007;-69
2022/09/25 03:28:14;;;;;;;6.00;3.77;;;;;;;8.15;84.92;95702.34;1821223;79;21033;-69
2022/09/25 03:30:41;;;;;;;3.43;3.13;;;;;;;8.13;85.25;95701.48;1820911;79;21014;-69
2022/09/25 03:33:12;;;;;;;4.47;3.60;;;;;;;8.07;85.16;95701.53;1821210;79;21013;-69
2022/09/25 03:35:39;;;;;;;6.07;3.63;;;;;;;8.03;85.23;95701.98;1821199;79;21129;-69
2022/09/25 03:38:09;;;;;;;5.40;3.47;;;;;;;8.03;85.01;95697.59;1821300;79;20978;-69
2022/09/25 03:40:36;;;;;;;4.73;3.30;;;;;;;8.05;84.81;95693.65;1821228;79;20990;-69
2022/09/25 03:43:04;;;;;;;4.43;3.50;;;;;;;8.02;85.11;95693.23;1821259;79;21569;-69
2022/09/25 03:45:31;;;;;;;5.63;3.97;;;;;;;7.99;85.23;95692.39;1821151;79;21033;-69
2022/09/25 03:47:58;;;;;;;6.03;3.57;;;;;;;7.97;85.45;95692.39;1821139;79;21018;-69
2022/09/25 03:50:24;;;;;;;4.40;3.90;;;;;;;7.99;85.58;95701.59;1821256;79;21033;-69
2022/09/25 03:52:51;;;;;;;6.70;3.87;;;;;;;8.02;85.54;95694.55;1821071;79;21014;-69
2022/09/25 03:55:18;;;;;;;4.97;3.60;;;;;;;8.06;85.50;95698.45;1821305;79;21429;-69
2022/09/25 03:57:45;;;;;;;6.33;3.77;;;;;;;8.03;85.22;95697.59;1820880;79;21580;-69
2022/09/25 04:00:13;;;;;;;4.23;3.60;;;;;;;8.02;85.57;95693.68;1821134;79;20975;-69
2022/09/25 04:02:40;;;;;;;4.50;3.40;;;;;;;8.05;85.40;95686.21;1821076;78;21536;-69
2022/09/25 04:05:08;;;;;;;4.33;3.50;;;;;;;8.08;85.50;95681.80;1820877;79;21092;-69
2022/09/25 04:07:35;;;;;;;4.70;3.60;;;;;;;8.11;85.79;95679.13;1820878;79;21510;-69
2022/09/25 04:10:02;;;;;;;3.47;3.13;;;;;;;8.13;85.48;95682.62;1821167;79;20974;-69
2022/09/25 04:12:29;;;;;;;3.87;2.93;;;;;;;8.13;85.21;95677.38;1821163;79;21066;-70
2022/09/25 04:14:55;;;;;;;3.10;2.77;;;;;;;8.17;85.28;95684.81;1821310;79;21017;-69
2022/09/25 04:17:22;;;;;;;3.53;2.83;;;;;;;8.23;85.57;95685.61;1820998;79;21006;-70
2022/09/25 04:19:49;;;;;;;6.10;2.87;;;;;;;8.30;85.23;95688.21;1820985;79;21074;-69
2022/09/25 04:22:15;;;;;;;2.80;2.60;;;;;;;8.36;85.71;95680.26;1821200;79;20977;-69
2022/09/25 04:24:48;;;;;;;8.60;5.30;;;;;;;8.39;85.31;95682.47;1821308;79;20971;-69
2022/09/25 04:27:19;;;;;;;6.27;3.37;;;;;;;8.45;85.71;95682.85;1821325;79;20977;-69
2022/09/25 04:29:46;;;;;;;29.63;18.27;;;;;;;8.51;85.45;95677.52;1821068;79;21011;-69
2022/09/25 04:35:00;;;;;;;18.30;12.43;;;;;;;8.62;84.97;95682.70;1821142;79;21515;-69
2022/09/25 04:37:26;;;;;;;13.27;7.77;;;;;;;8.67;85.36;95683.53;1821388;79;20986;-69
2022/09/25 04:39:57;;;;;;;10.13;5.53;;;;;;;8.73;85.27;95683.45;1821171;79;20986;-69
2022/09/25 04:42:24;;;;;;;9.53;7.83;;;;;;;8.80;84.78;95687.77;1821218;79;21538;-69
2022/09/25 04:44:53;;;;;;;5.70;3.97;;;;;;;8.76;84.21;95684.73;1820983;79;21019;-69
2022/09/25 04:47:22;;;;;;;7.93;5.30;;;;;;;8.81;84.72;95682.06;1821209;79;21006;-69
2022/09/25 04:49:49;;;;;;;5.47;4.10;;;;;;;8.85;84.79;95675.44;1820928;79;20978;-70
2022/09/25 04:52:17;;;;;;;5.67;4.12;;;;;;;8.95;84.44;95679.30;1821195;79;20990;-69
2022/09/25 04:54:45;;;;;;;5.95;4.50;;;;;;;8.91;84.15;95675.81;1821009;79;21514;-70
2022/09/25 04:57:16;;;;;;;8.53;4.47;;;;;;;9.00;84.71;95670.46;1821086;79;21038;-69
2022/09/25 04:59:43;;;;;;;3.57;3.07;;;;;;;9.03;83.84;95669.55;1819460;79;21013;-69
2022/09/25 05:02:12;;;;;;;3.03;2.60;;;;;;;8.95;83.58;95670.09;1821477;78;21046;-69
2022/09/25 05:04:38;;;;;;;5.95;4.40;;;;;;;9.02;84.27;95667.79;1831763;78;21029;-69
2022/09/25 05:07:05;;;;;;;10.13;4.67;;;;;;;9.10;84.51;95674.73;1831762;78;21077;-69
2022/09/25 05:09:32;;;;;;;6.80;5.00;;;;;;;9.24;84.71;95675.86;1831617;78;21101;-69
2022/09/25 05:12:00;;;;;;;7.50;4.30;;;;;;;9.30;84.05;95670.54;1831935;78;21547;-69
2022/09/25 05:14:26;;;;;;;5.58;4.37;;;;;;;9.31;83.40;95662.19;1832097;78;21009;-69
2022/09/25 05:16:53;;;;;;;4.37;3.93;;;;;;;9.33;83.13;95670.08;1831675;78;21033;-69
2022/09/25 05:19:19;;;;;;;5.05;4.55;;;;;;;9.38;83.74;95669.13;1831535;78;21061;-69
2022/09/25 05:21:46;;;;;;;8.15;5.08;;;;;;;9.46;83.51;95672.98;1831917;78;21033;-69
2022/09/25 05:24:12;;;;;;;8.78;4.80;;;;;;;9.51;83.76;95674.66;1831842;78;20994;-69
2022/09/25 05:26:40;;;;;;;5.47;4.37;;;;;;;9.57;83.65;95662.29;1831573;78;21018;-70
2022/09/25 05:29:07;;;;;;;8.65;4.70;;;;;;;9.61;83.21;95675.41;1832041;78;21040;-69
2022/09/25 05:31:34;;;;;;;5.35;4.55;;;;;;;9.65;82.75;95673.59;1831701;78;21001;-69
2022/09/25 05:34:00;;;;;;;5.92;4.55;;;;;;;9.60;82.33;95674.99;1832166;78;21017;-70
2022/09/25 05:36:27;;;;;;;9.50;4.53;;;;;;;9.56;82.21;95670.64;1831991;78;21448;-70
2022/09/25 05:38:55;;;;;;;4.87;4.22;;;;;;;9.54;82.21;95673.28;1832055;78;21030;-69
2022/09/25 05:41:23;;;;;;;4.75;4.25;;;;;;;9.56;82.54;95669.78;1831761;78;20981;-70
2022/09/25 05:43:49;;;;;;;8.93;4.42;;;;;;;9.56;82.37;95670.64;1832112;78;20974;-69
2022/09/25 05:46:16;;;;;;;8.05;5.05;;;;;;;9.55;82.52;95666.28;1831582;78;21010;-69
2022/09/25 05:48:43;;;;;;;5.50;4.58;;;;;;;9.58;82.31;95668.87;1832154;78;21337;-70
2022/09/25 05:51:10;;;;;;;7.55;4.80;;;;;;;9.59;82.29;95671.05;1832084;78;20998;-70
2022/09/25 05:53:37;;;;;;;5.90;4.70;;;;;;;9.59;81.75;95679.81;1831630;78;21543;-69
2022/09/25 05:56:05;;;;;;;6.25;4.95;;;;;;;9.58;81.81;95679.86;1831742;78;21006;-69
2022/09/25 05:58:33;;;;;;;9.23;6.85;;;;;;;9.62;82.11;95673.63;1831789;78;20986;-69
2022/09/25 06:01:03;;;;;;;9.63;7.50;;;;;;;9.61;81.59;95670.14;1831413;78;21141;-70
2022/09/25 06:03:30;;;;;;;6.85;5.40;;;;;;;9.63;81.79;95670.13;1832018;78;21201;-69
2022/09/25 06:05:58;;;;;;;6.12;5.45;;;;;;;9.65;81.66;95669.63;1831555;78;21006;-69
2022/09/25 06:08:26;;;;;;;8.70;6.03;;;;;;;9.70;81.79;95671.76;1831940;78;21492;-69
2022/09/25 06:10:53;;;;;;;7.12;5.97;;;;;;;9.74;81.77;95672.16;1831977;78;21073;-70
2022/09/25 06:13:22;;;;;;;8.85;4.65;;;;;;;9.74;81.52;95671.70;1831567;78;21045;-70
2022/09/25 06:15:51;;;;;;;4.00;3.42;;;;;;;9.81;81.38;95679.09;1831910;78;21504;-70
2022/09/25 06:18:21;;;;;;;8.35;4.83;;;;;;;9.87;81.18;95678.98;1832125;78;21009;-70
2022/09/25 06:20:48;;;;;;;5.53;4.58;;;;;;;9.97;81.33;95675.77;1831744;78;21045;-70
2022/09/25 06:23:16;;;;;;;8.18;4.00;;;;;;;10.10;81.41;95675.13;1832050;78;21464;-68
2022/09/25 06:25:43;;;;;;;5.20;3.00;;;;;;;10.22;81.41;95675.40;1832076;78;21006;-70
2022/09/25 06:28:11;;;;;;;8.55;5.22;;;;;;;10.30;80.99;95674.40;1831979;78;21017;-70
2022/09/25 06:30:38;;;;;;;7.33;4.85;;;;;;;10.43;81.09;95668.92;1831663;78;21539;-70
2022/09/25 06:33:11;;;;;;;6.22;4.65;;;;;;;10.54;80.58;95664.35;1831913;78;21013;-70
2022/09/25 06:35:44;;;;;;;6.65;4.95;;;;;;;10.65;80.37;95666.80;1831724;78;21021;-70
2022/09/25 06:38:12;;;;;;;5.20;4.28;;;;;;;10.71;79.27;95667.99;1832247;78;21021;-70
2022/09/25 06:40:39;;;;;;;7.72;5.00;;;;;;;10.80;79.00;95663.87;1831577;78;21496;-69
2022/09/25 06:43:13;;;;;;;5.42;3.92;;;;;;;10.87;78.87;95664.65;1831989;78;20978;-70
2022/09/25 06:45:40;;;;;;;5.00;3.87;;;;;;;10.97;78.39;95668.39;1832276;78;20943;-69
2022/09/25 06:48:14;;;;;;;6.30;3.65;;;;;;;11.02;77.97;95677.10;1831892;78;21504;-69
2022/09/25 06:50:48;;;;;;;5.50;4.25;;;;;;;11.08;77.84;95675.24;1831979;78;21468;-70
2022/09/25 06:53:16;;;;;;;4.95;3.92;;;;;;;11.10;76.78;95678.27;1832006;78;20962;-71
2022/09/25 06:55:46;;;;;;;4.53;4.12;;;;;;;11.13;76.93;95675.56;1831661;78;21089;-71
2022/09/25 06:58:18;;;;;;;4.00;3.60;;;;;;;11.18;76.00;95675.02;1832042;78;20994;-71
2022/09/25 07:00:50;;;;;;;5.12;3.75;;;;;;;11.24;77.03;95675.38;1831702;78;21129;-71
2022/09/25 07:06:05;;;;;;;5.72;4.90;;;;;;;11.40;76.54;95674.15;1821227;78;21031;-71
2022/09/25 07:08:33;;;;;;;8.10;3.90;;;;;;;11.47;76.47;95670.95;1826260;78;21432;-68
2022/09/25 07:11:00;;;;;;;3.87;3.45;;;;;;;11.55;75.55;95680.03;1826045;78;21029;-71
2022/09/25 07:13:31;;;;;;;4.60;3.98;;;;;;;11.58;75.09;95694.03;1826225;78;20995;-71
2022/09/25 07:16:05;;;;;;;5.22;3.70;;;;;;;11.60;74.77;95676.84;1826055;78;21090;-70
2022/09/25 07:18:33;;;;;;;3.70;3.30;;;;;;;11.65;74.70;95678.47;1826293;78;20997;-71
2022/09/25 07:21:07;;;;;;;4.75;3.52;;;;;;;11.72;74.97;95675.26;1826165;78;20986;-71
2022/09/25 07:23:35;;;;;;;5.00;3.58;;;;;;;11.80;74.28;95683.88;1825853;78;21057;-71
2022/09/25 07:26:09;;;;;;;4.30;3.40;;;;;;;11.86;74.72;95673.19;1826009;78;21006;-71
2022/09/25 07:28:38;;;;;;;4.72;3.67;;;;;;;11.96;74.34;95674.31;1826232;78;21472;-71
2022/09/25 07:31:20;;;;;;;4.42;3.35;;;;;;;12.03;73.90;95674.59;1825982;78;21080;-71
2022/09/25 07:33:47;;;;;;;4.87;3.60;;;;;;;12.08;74.35;95673.58;1825942;78;21014;-71
2022/09/25 07:36:16;;;;;;;3.90;3.47;;;;;;;12.12;73.89;95677.04;1826056;78;21010;-71
2022/09/25 07:38:44;;;;;;;5.70;3.50;;;;;;;12.19;74.23;95683.91;1825967;78;21508;-71
2022/09/25 07:41:12;;;;;;;4.05;3.65;;;;;;;12.21;73.28;95670.19;1826201;78;21532;-71
2022/09/25 07:43:42;;;;;;;7.03;3.50;;;;;;;12.21;73.49;95666.22;1826213;78;20980;-72
2022/09/25 07:46:08;;;;;;;4.20;3.80;;;;;;;12.23;72.96;95667.06;1826242;78;21014;-71
2022/09/25 07:48:35;;;;;;;3.52;3.22;;;;;;;12.31;72.83;95670.84;1826242;78;20978;-72
2022/09/25 07:51:09;;;;;;;4.08;3.60;;;;;;;12.34;72.05;95670.77;1825680;78;21021;-71
2022/09/25 07:53:37;;;;;;;4.37;3.30;;;;;;;12.39;72.57;95674.16;1826220;78;21584;-71
2022/09/25 07:56:04;;;;;;;3.33;2.98;;;;;;;12.47;72.46;95672.23;1826134;78;21085;-72
2022/09/25 07:58:31;;;;;;;4.22;3.20;;;;;;;12.47;71.56;95674.88;1826155;78;21014;-71
2022/09/25 08:01:01;;;;;;;4.95;3.00;;;;;;;12.47;71.96;95679.27;1826092;78;21460;-71
2022/09/25 08:03:28;;;;;;;3.37;3.08;;;;;;;12.48;71.82;95674.41;1826072;78;21480;-71
2022/09/25 08:06:08;;;;;;;4.80;3.40;;;;;;;12.55;72.22;95672.89;1825574;78;20990;-71
2022/09/25 08:08:35;;;;;;;3.60;2.83;;;;;;;12.68;72.32;95667.30;1826068;78;21006;-72
2022/09/25 08:11:06;;;;;;;3.10;2.65;;;;;;;12.79;71.42;95663.91;1825697;78;21018;-71
2022/09/25 08:13:33;;;;;;;3.77;2.70;;;;;;;12.87;71.00;95669.00;1825136;78;21545;-71
2022/09/25 08:16:10;;;;;;;4.15;2.70;;;;;;;12.98;71.07;95666.48;1825746;78;20979;-71
2022/09/25 08:18:40;;;;;;;3.15;2.65;;;;;;;13.12;70.20;95664.77;1826093;78;21029;-71
2022/09/25 08:21:08;;;;;;;3.10;2.80;;;;;;;13.28;70.41;95652.45;1826029;78;21512;-72
2022/09/25 08:23:35;;;;;;;3.72;3.02;;;;;;;13.40;70.12;95645.48;1825795;78;20971;-72
2022/09/25 08:26:01;;;;;;;5.62;2.90;;;;;;;13.53;69.36;95644.67;1825704;78;21444;-71
2022/09/25 08:28:28;;;;;;;5.42;3.02;;;;;;;13.59;69.23;95635.23;1826089;78;21002;-72
2022/09/25 08:31:02;;;;;;;3.80;3.35;;;;;;;13.63;68.20;95636.42;1826071;78;21029;-72
2022/09/25 08:33:30;;;;;;;4.45;3.00;;;;;;;13.58;68.69;95628.17;1825985;78;21006;-71
2022/09/25 08:36:01;;;;;;;3.37;3.08;;;;;;;13.63;69.04;95635.09;1826065;78;21013;-71
2022/09/25 08:38:28;;;;;;;5.28;3.33;;;;;;;13.70;69.85;95637.09;1826191;78;21029;-71
2022/09/25 08:41:08;;;;;;;5.70;3.00;;;;;;;13.80;68.48;95632.38;1825736;78;20943;-71
2022/09/25 08:43:45;;;;;;;3.00;2.70;;;;;;;13.80;68.48;95632.38;1825966;78;21030;-71
2022/09/25 08:49:18;;;;;;;3.95;3.40;;;;;;;13.97;69.65;95638.50;1825766;78;21018;-71
2022/09/25 08:51:47;;;;;;;3.85;2.92;;;;;;;13.97;69.65;95638.50;1825748;78;21026;-71
2022/09/25 08:54:26;;;;;;;4.45;2.90;;;;;;;14.14;69.23;95632.67;1826130;78;21655;-68
2022/09/25 08:57:17;;;;;;;3.50;2.47;;;;;;;14.14;69.23;95632.67;1826090;78;21105;-72
2022/09/25 08:59:48;;;;;;;2.85;2.40;;;;;;;14.23;68.86;95630.56;1826335;78;21005;-72
2022/09/25 09:02:20;;;;;;;2.52;2.27;;;;;;;14.39;67.10;95628.73;1826027;78;21042;-71
2022/09/25 09:04:57;;;;;;;2.90;2.50;;;;;;;14.39;67.10;95628.73;1829023;78;21523;-72
2022/09/25 09:07:39;;;;;;;3.67;2.70;;;;;;;14.51;67.98;95628.33;1831575;78;21555;-72
2022/09/25 09:10:39;;;;;;;3.92;2.33;;;;;;;14.69;67.28;95622.45;1831434;78;21034;-71
2022/09/25 09:13:19;;;;;;;3.30;3.00;;;;;;;14.93;66.68;95617.20;1831930;78;20982;-72
2022/09/25 09:15:58;;;;;;;6.92;3.17;;;;;;;15.21;66.07;95613.55;1831696;78;20986;-71
2022/09/25 09:18:27;;;;;;;4.03;3.22;;;;;;;15.46;65.57;95608.20;1831959;78;21559;-71
2022/09/25 09:20:58;;;;;;;3.10;2.80;;;;;;;15.57;63.50;95614.86;1831858;78;21492;-70
2022/09/25 09:23:59;;;;;;;2.98;2.67;;;;;;;15.55;63.02;95616.70;1830781;78;21061;-71
2022/09/25 09:26:39;;;;;;;2.95;2.65;;;;;;;15.57;62.83;95611.30;1764808;78;21062;-71
2022/09/25 09:29:34;;;;;;;5.25;2.77;;;;;;;15.55;62.76;95612.71;1783367;78;20979;-71
2022/09/25 09:32:38;;;;;;;7.15;3.10;;;;;;;15.58;62.51;95619.23;1832065;78;21041;-71
2022/09/25 09:35:28;;;;;;;2.90;2.70;;;;;;;15.64;62.28;95618.59;1831780;78;21010;-72
2022/09/25 09:38:10;;;;;;;6.30;2.77;;;;;;;15.65;61.51;95618.55;1811371;78;21037;-72
2022/09/25 09:41:12;;;;;;;2.87;2.55;;;;;;;15.63;61.46;95616.88;1831647;78;21005;-72
2022/09/25 09:44:15;;;;;;;3.62;3.22;;;;;;;15.64;60.74;95612.81;1831580;78;20970;-72
2022/09/25 09:47:10;;;;;;;3.12;2.83;;;;;;;15.59;60.82;95617.44;1831922;78;21073;-72
2022/09/25 09:49:42;;;;;;;3.87;3.30;;;;;;;15.57;61.14;95620.17;1830818;78;21002;-72
2022/09/25 09:52:20;;;;;;;3.60;2.87;;;;;;;15.56;61.35;95624.20;1802041;78;21466;-72
2022/09/25 09:55:00;;;;;;;3.50;3.20;;;;;;;15.51;60.69;95623.05;1831709;78;21041;-71
2022/09/25 09:57:31;;;;;;;3.92;3.10;;;;;;;15.43;60.56;95625.60;1831722;78;21070;-72
2022/09/25 10:00:06;;;;;;;3.70;2.95;;;;;;;15.34;61.10;95618.81;1829462;78;21045;-72
2022/09/25 10:02:49;;;;;;;3.33;3.00;;;;;;;15.28;60.84;95621.71;1832016;78;21037;-71
2022/09/25 10:05:39;;;;;;;3.50;3.20;;;;;;;15.31;61.41;95619.80;1826701;78;21018;-71
2022/09/25 10:08:08;;;;;;;5.90;3.05;;;;;;;15.30;61.26;95619.88;1825783;79;21021;-71
2022/09/25 10:10:38;;;;;;;5.87;3.40;;;;;;;15.37;61.59;95616.03;1826337;78;21480;-71
2022/09/25 10:13:19;;;;;;;4.00;3.55;;;;;;;15.49;61.97;95613.39;1825809;78;21022;-71
2022/09/25 10:15:53;;;;;;;5.25;3.62;;;;;;;15.72;62.21;95608.13;1815912;78;21026;-71
2022/09/25 10:18:23;;;;;;;4.58;3.60;;;;;;;16.01;61.70;95604.77;1826129;78;20994;-72
2022/09/25 10:21:15;;;;;;;5.85;3.70;;;;;;;16.30;61.23;95603.58;1826081;78;21006;-72
2022/09/25 10:23:51;;;;;;;3.75;3.30;;;;;;;16.53;61.65;95604.42;1708135;84;21030;-72
2022/09/25 10:26:38;;;;;;;4.03;3.42;;;;;;;16.69;60.25;95598.88;1772814;78;20994;-72
2022/09/25 10:29:10;;;;;;;4.00;3.60;;;;;;;16.75;60.08;95599.92;1826102;78;21026;-72
2022/09/25 10:31:39;;;;;;;5.33;3.37;;;;;;;16.70;58.57;95589.08;1822807;78;20970;-72
2022/09/25 10:34:18;;;;;;;5.72;3.35;;;;;;;16.69;59.87;95592.21;1825922;78;21049;-72
2022/09/25 10:36:50;;;;;;;7.58;3.40;;;;;;;16.73;59.33;95589.83;1826202;78;21464;-72
2022/09/25 10:39:40;;;;;;;4.75;3.50;;;;;;;16.85;60.19;95589.30;1826150;78;21500;-72
2022/09/25 10:42:38;;;;;;;3.95;3.42;;;;;;;16.88;59.46;95588.30;1826067;78;21036;-72
2022/09/25 10:45:28;;;;;;;4.40;3.47;;;;;;;16.76;59.39;95587.02;1826690;78;21009;-72
2022/09/25 10:50:41;;;;;;;4.35;3.95;;;;;;;16.58;60.01;95591.34;1826290;78;21548;-72
2022/09/25 10:53:27;;;;;;;4.05;3.65;;;;;;;16.52;60.62;95589.39;1826288;78;20978;-71
2022/09/25 10:56:11;;;;;;;3.98;3.52;;;;;;;16.39;59.57;95581.91;1815478;78;21061;-71
2022/09/25 10:58:46;;;;;;;5.67;3.95;;;;;;;16.27;59.93;95578.42;1826190;78;20998;-72
2022/09/25 11:01:15;;;;;;;4.85;3.72;;;;;;;16.13;60.71;95585.66;1825030;78;21042;-72
2022/09/25 11:03:50;;;;;;;4.40;3.98;;;;;;;16.06;61.05;95581.50;1826155;78;21029;-72
2022/09/25 11:06:31;;;;;;;5.67;3.75;;;;;;;16.06;61.42;95576.65;1825644;78;21006;-72
2022/09/25 11:09:04;;;;;;;6.20;3.87;;;;;;;16.04;61.39;95579.36;1826111;78;21062;-72
2022/09/25 11:11:31;;;;;;;5.00;4.05;;;;;;;16.05;61.32;95584.21;1812393;78;20998;-72
2022/09/25 11:14:02;;;;;;;4.87;3.72;;;;;;;16.07;61.32;95584.55;1826298;78;20955;-72
2022/09/25 11:16:53;;;;;;;7.47;3.60;;;;;;;16.10;61.42;95583.13;1825902;78;21428;-72
2022/09/25 11:19:24;;;;;;;5.30;4.28;;;;;;;16.13;61.78;95580.33;1826252;78;21049;-72
2022/09/25 11:22:14;;;;;;;5.37;4.37;;;;;;;16.22;62.06;95569.28;1826194;78;20986;-72
2022/09/25 11:25:10;;;;;;;5.83;4.10;;;;;;;16.31;62.14;95569.39;1825983;78;21057;-72
2022/09/25 11:28:03;;;;;;;4.78;4.35;;;;;;;16.32;62.21;95568.91;1824918;78;21540;-72
2022/09/25 11:30:38;;;;;;;5.03;4.15;;;;;;;16.31;62.11;95571.19;1826096;78;21524;-72
2022/09/25 11:33:22;;;;;;;7.75;4.55;;;;;;;16.30;61.87;95576.09;1826276;78;20962;-72
2022/09/25 11:35:56;;;;;;;4.47;4.08;;;;;;;16.26;62.05;95570.05;1825753;78;21050;-72
2022/09/25 11:41:49;;;;;;;6.80;4.17;;;;;;;16.27;62.90;95564.25;1826054;78;21010;-72
2022/09/25 11:44:56;;;;;;;5.35;4.37;;;;;;;16.23;62.18;95567.52;1826054;78;21495;-72
2022/09/25 11:47:35;;;;;;;5.22;4.15;;;;;;;16.20;62.54;95564.95;1824259;78;21029;-72
2022/09/25 11:50:06;;;;;;;5.78;4.30;;;;;;;16.18;62.60;95568.17;1825950;78;21058;-73
2022/09/25 11:52:58;;;;;;;4.72;4.20;;;;;;;16.16;62.80;95580.67;1826120;78;20978;-72
2022/09/25 11:55:51;;;;;;;5.62;4.42;;;;;;;16.19;62.83;95573.88;1825562;78;21515;-71
2022/09/25 11:58:41;;;;;;;5.50;4.50;;;;;;;16.24;63.45;95567.91;1825989;78;21014;-72
2022/09/25 12:01:51;;;;;;;8.33;4.83;;;;;;;16.29;63.56;95569.05;1826156;78;20974;-72
2022/09/25 12:04:37;;;;;;;4.87;4.17;;;;;;;16.33;63.95;95555.98;1823943;78;20982;-71
2022/09/25 12:07:21;;;;;;;8.83;4.65;;;;;;;16.41;63.60;95552.56;1820929;79;21014;-72
2022/09/25 12:10:04;;;;;;;6.20;4.65;;;;;;;16.53;63.13;95544.50;1820940;79;21010;-72
2022/09/25 12:13:15;;;;;;;4.80;4.40;;;;;;;16.56;62.57;95550.58;1820957;79;20999;-72
2022/09/25 12:16:11;;;;;;;7.97;5.20;;;;;;;16.61;62.94;95559.23;1782915;79;21007;-72
2022/09/25 12:19:02;;;;;;;6.60;4.95;;;;;;;16.65;62.06;95562.63;1821189;79;20998;-72
2022/09/25 12:21:48;;;;;;;5.30;4.80;;;;;;;16.62;62.29;95554.30;1821404;79;21480;-72
2022/09/25 12:24:36;;;;;;;5.00;4.50;;;;;;;16.62;62.31;95544.97;1820928;79;21492;-72
2022/09/25 12:27:31;;;;;;;6.78;5.20;;;;;;;16.69;62.61;95544.73;1820361;79;21018;-72
2022/09/25 12:30:18;;;;;;;5.95;4.47;;;;;;;16.81;62.55;95537.09;1821163;79;21041;-72
2022/09/25 12:33:03;;;;;;;5.25;4.58;;;;;;;16.94;63.00;95533.89;1821199;79;21010;-71